sensor_id;sensor_type;location;lat;lon;timestamp;P1;durP1;ratioP1;P2;durP2;ratioP2
61572;SDS011;47465;43.094;12.434;2023-12-29T00:04:10;15.35;;;8.20;;
61572;SDS011;47465;43.094;12.434;2023-12-29T00:06:57;14.63;;;7.35;;
61572;SDS011;47465;43.094;12.434;2023-12-29T00:09:56;12.57;;;7.03;;
61572;SDS011;47465;43.094;12.434;2023-12-29T00:19:47;11.90;;;7.07;;
61572;SDS011;47465;43.094;12.434;2023-12-29T00:22:27;12.55;;;8.48;;
61572;SDS011;47465;43.094;12.434;2023-12-29T00:28:28;12.13;;;7.95;;
61572;SDS011;47465;43.094;12.434;2023-12-29T00:38:27;11.07;;;7.30;;
61572;SDS011;47465;43.094;12.434;2023-12-29T00:41:08;15.13;;;7.10;;
61572;SDS011;47465;43.094;12.434;2023-12-29T00:43:43;13.60;;;8.25;;
61572;SDS011;47465;43.094;12.434;2023-12-29T00:46:14;14.02;;;8.55;;
61572;SDS011;47465;43.094;12.434;2023-12-29T00:48:46;14.30;;;7.60;;
61572;SDS011;47465;43.094;12.434;2023-12-29T00:51:26;12.85;;;7.32;;
61572;SDS011;47465;43.094;12.434;2023-12-29T00:53:56;12.43;;;7.18;;
61572;SDS011;47465;43.094;12.434;2023-12-29T00:56:29;10.13;;;7.00;;
61572;SDS011;47465;43.094;12.434;2023-12-29T00:58:57;11.13;;;7.70;;
61572;SDS011;47465;43.094;12.434;2023-12-29T01:04:12;14.40;;;7.85;;
61572;SDS011;47465;43.094;12.434;2023-12-29T01:06:51;12.85;;;7.43;;
61572;SDS011;47465;43.094;12.434;2023-12-29T01:09:30;14.70;;;8.20;;
61572;SDS011;47465;43.094;12.434;2023-12-29T01:11:59;13.65;;;7.82;;
61572;SDS011;47465;43.094;12.434;2023-12-29T01:17:25;12.48;;;7.50;;
61572;SDS011;47465;43.094;12.434;2023-12-29T01:20:11;14.50;;;7.90;;
61572;SDS011;47465;43.094;12.434;2023-12-29T01:22:42;11.85;;;7.22;;
61572;SDS011;47465;43.094;12.434;2023-12-29T01:25:20;11.32;;;7.78;;
61572;SDS011;47465;43.094;12.434;2023-12-29T01:28:02;13.65;;;8.73;;
61572;SDS011;47465;43.094;12.434;2023-12-29T01:30:34;14.32;;;8.65;;
61572;SDS011;47465;43.094;12.434;2023-12-29T01:33:05;13.98;;;7.75;;
61572;SDS011;47465;43.094;12.434;2023-12-29T01:35:47;14.30;;;8.23;;
61572;SDS011;47465;43.094;12.434;2023-12-29T01:38:21;14.48;;;8.27;;
61572;SDS011;47465;43.094;12.434;2023-12-29T01:40:55;12.43;;;8.25;;
61572;SDS011;47465;43.094;12.434;2023-12-29T01:44:02;13.23;;;8.20;;
61572;SDS011;47465;43.094;12.434;2023-12-29T01:46:58;15.18;;;7.95;;
61572;SDS011;47465;43.094;12.434;2023-12-29T01:49:49;10.23;;;6.30;;
61572;SDS011;47465;43.094;12.434;2023-12-29T01:52:27;11.77;;;7.75;;
61572;SDS011;47465;43.094;12.434;2023-12-29T01:55:04;13.05;;;6.93;;
61572;SDS011;47465;43.094;12.434;2023-12-29T01:57:45;9.38;;;5.85;;
61572;SDS011;47465;43.094;12.434;2023-12-29T02:00:29;8.48;;;6.07;;
61572;SDS011;47465;43.094;12.434;2023-12-29T02:03:02;12.85;;;5.63;;
61572;SDS011;47465;43.094;12.434;2023-12-29T02:05:44;9.20;;;5.65;;
61572;SDS011;47465;43.094;12.434;2023-12-29T02:08:36;10.23;;;6.30;;
61572;SDS011;47465;43.094;12.434;2023-12-29T02:11:14;8.43;;;5.20;;
61572;SDS011;47465;43.094;12.434;2023-12-29T02:17:09;6.75;;;4.80;;
61572;SDS011;47465;43.094;12.434;2023-12-29T02:19:46;10.15;;;5.65;;
61572;SDS011;47465;43.094;12.434;2023-12-29T02:22:27;7.63;;;4.68;;
61572;SDS011;47465;43.094;12.434;2023-12-29T02:24:59;7.13;;;5.07;;
61572;SDS011;47465;43.094;12.434;2023-12-29T02:27:49;7.68;;;5.10;;
61572;SDS011;47465;43.094;12.434;2023-12-29T02:30:29;10.00;;;5.97;;
61572;SDS011;47465;43.094;12.434;2023-12-29T02:33:12;7.22;;;4.65;;
61572;SDS011;47465;43.094;12.434;2023-12-29T02:35:51;8.20;;;5.82;;
61572;SDS011;47465;43.094;12.434;2023-12-29T02:38:23;10.68;;;4.63;;
61572;SDS011;47465;43.094;12.434;2023-12-29T02:41:04;9.05;;;5.50;;
61572;SDS011;47465;43.094;12.434;2023-12-29T02:43:39;7.55;;;4.60;;
61572;SDS011;47465;43.094;12.434;2023-12-29T02:46:19;10.82;;;5.93;;
61572;SDS011;47465;43.094;12.434;2023-12-29T02:51:52;8.60;;;6.18;;
61572;SDS011;47465;43.094;12.434;2023-12-29T02:54:28;8.27;;;4.95;;
61572;SDS011;47465;43.094;12.434;2023-12-29T03:03:07;7.50;;;5.25;;
61572;SDS011;47465;43.094;12.434;2023-12-29T03:05:37;8.75;;;5.82;;
61572;SDS011;47465;43.094;12.434;2023-12-29T03:08:08;10.70;;;5.63;;
61572;SDS011;47465;43.094;12.434;2023-12-29T03:10:50;10.05;;;5.68;;
61572;SDS011;47465;43.094;12.434;2023-12-29T03:13:27;8.82;;;5.68;;
61572;SDS011;47465;43.094;12.434;2023-12-29T03:19:11;7.78;;;5.35;;
61572;SDS011;47465;43.094;12.434;2023-12-29T03:21:54;7.22;;;4.43;;
61572;SDS011;47465;43.094;12.434;2023-12-29T03:24:27;7.75;;;5.15;;
61572;SDS011;47465;43.094;12.434;2023-12-29T03:27:02;7.88;;;5.53;;
61572;SDS011;47465;43.094;12.434;2023-12-29T03:29:36;9.32;;;5.40;;
61572;SDS011;47465;43.094;12.434;2023-12-29T03:35:01;10.18;;;4.18;;
61572;SDS011;47465;43.094;12.434;2023-12-29T03:38:04;9.65;;;5.32;;
61572;SDS011;47465;43.094;12.434;2023-12-29T03:40:37;11.43;;;5.32;;
61572;SDS011;47465;43.094;12.434;2023-12-29T03:43:18;7.90;;;5.65;;
61572;SDS011;47465;43.094;12.434;2023-12-29T03:46:02;8.88;;;4.95;;
61572;SDS011;47465;43.094;12.434;2023-12-29T03:48:45;8.15;;;4.55;;
61572;SDS011;47465;43.094;12.434;2023-12-29T03:51:15;9.38;;;5.22;;
61572;SDS011;47465;43.094;12.434;2023-12-29T03:54:02;8.90;;;5.28;;
61572;SDS011;47465;43.094;12.434;2023-12-29T03:56:40;9.45;;;5.53;;
61572;SDS011;47465;43.094;12.434;2023-12-29T03:59:13;9.93;;;6.05;;
61572;SDS011;47465;43.094;12.434;2023-12-29T04:02:01;11.32;;;6.53;;
61572;SDS011;47465;43.094;12.434;2023-12-29T04:04:44;11.43;;;6.07;;
61572;SDS011;47465;43.094;12.434;2023-12-29T04:07:27;9.65;;;6.00;;
61572;SDS011;47465;43.094;12.434;2023-12-29T04:10:04;12.85;;;5.95;;
61572;SDS011;47465;43.094;12.434;2023-12-29T04:12:38;8.15;;;5.50;;
61572;SDS011;47465;43.094;12.434;2023-12-29T04:15:14;13.68;;;6.68;;
61572;SDS011;47465;43.094;12.434;2023-12-29T04:17:49;11.27;;;6.05;;
61572;SDS011;47465;43.094;12.434;2023-12-29T04:20:33;14.48;;;5.93;;
61572;SDS011;47465;43.094;12.434;2023-12-29T04:23:19;8.90;;;5.53;;
61572;SDS011;47465;43.094;12.434;2023-12-29T04:26:00;10.27;;;6.40;;
61572;SDS011;47465;43.094;12.434;2023-12-29T04:28:36;10.75;;;5.75;;
61572;SDS011;47465;43.094;12.434;2023-12-29T04:31:14;11.73;;;6.65;;
61572;SDS011;47465;43.094;12.434;2023-12-29T04:33:53;10.25;;;7.18;;
61572;SDS011;47465;43.094;12.434;2023-12-29T04:36:40;14.23;;;6.68;;
61572;SDS011;47465;43.094;12.434;2023-12-29T04:39:09;12.88;;;7.78;;
61572;SDS011;47465;43.094;12.434;2023-12-29T04:41:42;12.23;;;6.70;;
61572;SDS011;47465;43.094;12.434;2023-12-29T04:46:59;11.18;;;7.07;;
61572;SDS011;47465;43.094;12.434;2023-12-29T04:49:33;16.05;;;7.60;;
61572;SDS011;47465;43.094;12.434;2023-12-29T04:52:17;13.80;;;7.93;;
61572;SDS011;47465;43.094;12.434;2023-12-29T04:55:02;15.13;;;9.52;;
61572;SDS011;47465;43.094;12.434;2023-12-29T04:57:53;13.35;;;8.15;;
61572;SDS011;47465;43.094;12.434;2023-12-29T05:00:25;17.85;;;8.85;;
61572;SDS011;47465;43.094;12.434;2023-12-29T05:02:58;13.50;;;8.40;;
61572;SDS011;47465;43.094;12.434;2023-12-29T05:05:30;12.98;;;7.53;;
61572;SDS011;47465;43.094;12.434;2023-12-29T05:08:12;18.00;;;8.80;;
61572;SDS011;47465;43.094;12.434;2023-12-29T05:10:48;17.30;;;7.85;;
61572;SDS011;47465;43.094;12.434;2023-12-29T05:13:31;14.25;;;8.55;;
61572;SDS011;47465;43.094;12.434;2023-12-29T05:16:06;14.02;;;7.72;;
61572;SDS011;47465;43.094;12.434;2023-12-29T05:18:40;13.02;;;8.02;;
61572;SDS011;47465;43.094;12.434;2023-12-29T05:21:35;10.93;;;7.25;;
61572;SDS011;47465;43.094;12.434;2023-12-29T05:26:58;11.30;;;7.40;;
61572;SDS011;47465;43.094;12.434;2023-12-29T05:29:35;13.45;;;8.38;;
61572;SDS011;47465;43.094;12.434;2023-12-29T05:34:51;14.43;;;8.13;;
61572;SDS011;47465;43.094;12.434;2023-12-29T05:37:26;12.18;;;7.80;;
61572;SDS011;47465;43.094;12.434;2023-12-29T05:40:00;14.63;;;7.70;;
61572;SDS011;47465;43.094;12.434;2023-12-29T05:42:31;11.60;;;7.65;;
61572;SDS011;47465;43.094;12.434;2023-12-29T05:45:04;14.35;;;8.48;;
61572;SDS011;47465;43.094;12.434;2023-12-29T05:47:42;14.52;;;8.85;;
61572;SDS011;47465;43.094;12.434;2023-12-29T05:50:34;15.30;;;8.40;;
61572;SDS011;47465;43.094;12.434;2023-12-29T05:53:05;13.15;;;9.35;;
61572;SDS011;47465;43.094;12.434;2023-12-29T05:55:48;13.95;;;9.18;;
61572;SDS011;47465;43.094;12.434;2023-12-29T05:58:16;11.57;;;7.95;;
61572;SDS011;47465;43.094;12.434;2023-12-29T06:00:54;12.70;;;8.55;;
61572;SDS011;47465;43.094;12.434;2023-12-29T06:03:30;11.80;;;8.57;;
61572;SDS011;47465;43.094;12.434;2023-12-29T06:06:01;11.88;;;7.20;;
61572;SDS011;47465;43.094;12.434;2023-12-29T06:08:31;14.95;;;7.15;;
61572;SDS011;47465;43.094;12.434;2023-12-29T06:11:06;10.02;;;6.57;;
61572;SDS011;47465;43.094;12.434;2023-12-29T06:13:37;13.43;;;7.00;;
61572;SDS011;47465;43.094;12.434;2023-12-29T06:16:10;13.73;;;7.10;;
61572;SDS011;47465;43.094;12.434;2023-12-29T06:18:54;12.45;;;6.97;;
61572;SDS011;47465;43.094;12.434;2023-12-29T06:21:40;13.15;;;7.25;;
61572;SDS011;47465;43.094;12.434;2023-12-29T06:24:17;11.32;;;6.20;;
61572;SDS011;47465;43.094;12.434;2023-12-29T06:26:54;11.80;;;6.93;;
61572;SDS011;47465;43.094;12.434;2023-12-29T06:29:37;10.18;;;7.25;;
61572;SDS011;47465;43.094;12.434;2023-12-29T06:32:19;12.15;;;7.13;;
61572;SDS011;47465;43.094;12.434;2023-12-29T06:35:00;12.60;;;7.03;;
61572;SDS011;47465;43.094;12.434;2023-12-29T06:37:42;9.13;;;5.78;;
61572;SDS011;47465;43.094;12.434;2023-12-29T06:40:16;11.85;;;7.18;;
61572;SDS011;47465;43.094;12.434;2023-12-29T06:43:11;10.80;;;6.72;;
61572;SDS011;47465;43.094;12.434;2023-12-29T06:45:45;9.85;;;7.03;;
61572;SDS011;47465;43.094;12.434;2023-12-29T06:48:15;11.18;;;7.53;;
61572;SDS011;47465;43.094;12.434;2023-12-29T06:50:47;11.65;;;6.30;;
61572;SDS011;47465;43.094;12.434;2023-12-29T06:53:21;13.80;;;7.65;;
61572;SDS011;47465;43.094;12.434;2023-12-29T06:55:52;10.85;;;6.88;;
61572;SDS011;47465;43.094;12.434;2023-12-29T06:58:27;12.52;;;7.32;;
61572;SDS011;47465;43.094;12.434;2023-12-29T07:01:02;11.27;;;7.38;;
61572;SDS011;47465;43.094;12.434;2023-12-29T07:03:54;10.30;;;6.85;;
61572;SDS011;47465;43.094;12.434;2023-12-29T07:06:24;12.73;;;7.35;;
61572;SDS011;47465;43.094;12.434;2023-12-29T07:08:59;10.38;;;6.32;;
61572;SDS011;47465;43.094;12.434;2023-12-29T07:11:41;10.65;;;7.40;;
61572;SDS011;47465;43.094;12.434;2023-12-29T07:14:19;11.55;;;7.28;;
61572;SDS011;47465;43.094;12.434;2023-12-29T07:17:01;10.77;;;7.47;;
61572;SDS011;47465;43.094;12.434;2023-12-29T07:19:50;8.82;;;6.75;;
61572;SDS011;47465;43.094;12.434;2023-12-29T07:22:24;13.65;;;7.13;;
61572;SDS011;47465;43.094;12.434;2023-12-29T07:25:04;10.80;;;7.13;;
61572;SDS011;47465;43.094;12.434;2023-12-29T07:27:40;13.52;;;7.30;;
61572;SDS011;47465;43.094;12.434;2023-12-29T07:30:18;13.02;;;7.85;;
61572;SDS011;47465;43.094;12.434;2023-12-29T07:32:52;10.95;;;7.53;;
61572;SDS011;47465;43.094;12.434;2023-12-29T07:35:31;16.40;;;7.55;;
61572;SDS011;47465;43.094;12.434;2023-12-29T07:38:01;14.20;;;8.10;;
61572;SDS011;47465;43.094;12.434;2023-12-29T07:43:30;14.30;;;8.13;;
61572;SDS011;47465;43.094;12.434;2023-12-29T07:48:37;13.68;;;8.50;;
61572;SDS011;47465;43.094;12.434;2023-12-29T07:54:12;17.85;;;10.30;;
61572;SDS011;47465;43.094;12.434;2023-12-29T07:57:09;18.05;;;9.10;;
61572;SDS011;47465;43.094;12.434;2023-12-29T07:59:37;16.65;;;9.02;;
61572;SDS011;47465;43.094;12.434;2023-12-29T08:05:16;15.20;;;9.00;;
61572;SDS011;47465;43.094;12.434;2023-12-29T08:07:57;14.48;;;9.55;;
61572;SDS011;47465;43.094;12.434;2023-12-29T08:10:54;15.68;;;9.82;;
61572;SDS011;47465;43.094;12.434;2023-12-29T08:13:44;22.20;;;9.85;;
61572;SDS011;47465;43.094;12.434;2023-12-29T08:16:34;17.48;;;9.95;;
61572;SDS011;47465;43.094;12.434;2023-12-29T08:19:09;15.27;;;9.65;;
61572;SDS011;47465;43.094;12.434;2023-12-29T08:25:12;15.90;;;10.32;;
61572;SDS011;47465;43.094;12.434;2023-12-29T08:27:53;16.17;;;10.05;;
61572;SDS011;47465;43.094;12.434;2023-12-29T08:30:24;13.25;;;7.75;;
61572;SDS011;47465;43.094;12.434;2023-12-29T08:33:26;12.98;;;8.23;;
61572;SDS011;47465;43.094;12.434;2023-12-29T08:36:18;15.05;;;9.25;;
61572;SDS011;47465;43.094;12.434;2023-12-29T08:38:52;10.07;;;6.88;;
61572;SDS011;47465;43.094;12.434;2023-12-29T08:41:24;13.13;;;8.65;;
61572;SDS011;47465;43.094;12.434;2023-12-29T08:43:56;14.88;;;6.85;;
61572;SDS011;47465;43.094;12.434;2023-12-29T08:49:05;13.45;;;8.40;;
61572;SDS011;47465;43.094;12.434;2023-12-29T08:51:38;13.00;;;8.23;;
61572;SDS011;47465;43.094;12.434;2023-12-29T08:54:18;14.48;;;8.15;;
61572;SDS011;47465;43.094;12.434;2023-12-29T08:56:59;14.20;;;9.00;;
61572;SDS011;47465;43.094;12.434;2023-12-29T08:59:30;17.23;;;9.55;;
61572;SDS011;47465;43.094;12.434;2023-12-29T09:02:02;15.43;;;9.25;;
61572;SDS011;47465;43.094;12.434;2023-12-29T09:04:30;14.20;;;9.48;;
61572;SDS011;47465;43.094;12.434;2023-12-29T09:06:58;13.70;;;9.20;;
61572;SDS011;47465;43.094;12.434;2023-12-29T09:09:31;12.50;;;7.80;;
61572;SDS011;47465;43.094;12.434;2023-12-29T09:12:02;15.23;;;8.45;;
61572;SDS011;47465;43.094;12.434;2023-12-29T09:14:32;14.27;;;8.13;;
61572;SDS011;47465;43.094;12.434;2023-12-29T09:17:00;12.82;;;7.90;;
61572;SDS011;47465;43.094;12.434;2023-12-29T09:20:03;14.73;;;9.43;;
61572;SDS011;47465;43.094;12.434;2023-12-29T09:25:04;16.48;;;8.25;;
61572;SDS011;47465;43.094;12.434;2023-12-29T09:28:05;11.63;;;7.97;;
61572;SDS011;47465;43.094;12.434;2023-12-29T09:30:41;16.85;;;8.52;;
61572;SDS011;47465;43.094;12.434;2023-12-29T09:33:13;12.50;;;7.50;;
61572;SDS011;47465;43.094;12.434;2023-12-29T09:35:47;13.65;;;8.45;;
61572;SDS011;47465;43.094;12.434;2023-12-29T09:38:17;16.55;;;9.80;;
61572;SDS011;47465;43.094;12.434;2023-12-29T09:41:04;15.50;;;8.70;;
61572;SDS011;47465;43.094;12.434;2023-12-29T09:46:49;16.23;;;9.98;;
61572;SDS011;47465;43.094;12.434;2023-12-29T10:06:07;15.07;;;8.35;;
61572;SDS011;47465;43.094;12.434;2023-12-29T10:08:49;15.90;;;9.85;;
61572;SDS011;47465;43.094;12.434;2023-12-29T10:11:54;16.00;;;9.27;;
61572;SDS011;47465;43.094;12.434;2023-12-29T10:32:12;18.58;;;9.63;;
61572;SDS011;47465;43.094;12.434;2023-12-29T11:22:37;16.02;;;10.43;;
61572;SDS011;47465;43.094;12.434;2023-12-29T11:25:09;12.70;;;10.38;;
61572;SDS011;47465;43.094;12.434;2023-12-29T11:59:26;14.50;;;10.32;;
61572;SDS011;47465;43.094;12.434;2023-12-29T12:07:09;12.43;;;8.48;;
61572;SDS011;47465;43.094;12.434;2023-12-29T12:13:43;13.80;;;10.23;;
61572;SDS011;47465;43.094;12.434;2023-12-29T12:50:25;9.55;;;5.45;;
61572;SDS011;47465;43.094;12.434;2023-12-29T12:52:55;8.80;;;5.40;;
61572;SDS011;47465;43.094;12.434;2023-12-29T14:06:20;6.75;;;4.07;;
61572;SDS011;47465;43.094;12.434;2023-12-29T14:09:14;7.32;;;3.75;;
61572;SDS011;47465;43.094;12.434;2023-12-29T14:15:06;7.10;;;4.45;;
61572;SDS011;47465;43.094;12.434;2023-12-29T14:48:44;11.13;;;6.18;;
61572;SDS011;47465;43.094;12.434;2023-12-29T15:51:55;16.58;;;9.20;;
61572;SDS011;47465;43.094;12.434;2023-12-29T16:01:27;16.60;;;9.27;;
61572;SDS011;47465;43.094;12.434;2023-12-29T16:04:25;14.75;;;8.25;;
61572;SDS011;47465;43.094;12.434;2023-12-29T16:13:21;16.38;;;8.95;;
61572;SDS011;47465;43.094;12.434;2023-12-29T16:16:40;14.48;;;9.10;;
61572;SDS011;47465;43.094;12.434;2023-12-29T16:19:32;17.00;;;9.30;;
61572;SDS011;47465;43.094;12.434;2023-12-29T17:40:54;18.63;;;13.02;;
61572;SDS011;47465;43.094;12.434;2023-12-29T17:43:26;17.42;;;11.07;;
61572;SDS011;47465;43.094;12.434;2023-12-29T17:46:52;17.45;;;11.02;;
61572;SDS011;47465;43.094;12.434;2023-12-29T17:52:55;20.65;;;13.98;;
61572;SDS011;47465;43.094;12.434;2023-12-29T19:24:45;11.95;;;8.85;;
61572;SDS011;47465;43.094;12.434;2023-12-29T19:27:36;13.45;;;8.50;;
61572;SDS011;47465;43.094;12.434;2023-12-29T19:30:26;12.43;;;9.63;;
61572;SDS011;47465;43.094;12.434;2023-12-29T19:33:14;16.30;;;8.80;;
61572;SDS011;47465;43.094;12.434;2023-12-29T19:35:59;17.58;;;7.93;;
61572;SDS011;47465;43.094;12.434;2023-12-29T19:42:44;19.00;;;9.88;;
61572;SDS011;47465;43.094;12.434;2023-12-29T19:45:25;12.63;;;9.07;;
61572;SDS011;47465;43.094;12.434;2023-12-29T19:47:58;16.17;;;9.18;;
61572;SDS011;47465;43.094;12.434;2023-12-29T19:51:00;11.45;;;7.90;;
61572;SDS011;47465;43.094;12.434;2023-12-29T19:53:47;13.00;;;7.85;;
61572;SDS011;47465;43.094;12.434;2023-12-29T19:56:57;10.20;;;7.55;;
61572;SDS011;47465;43.094;12.434;2023-12-29T19:59:27;12.30;;;7.00;;
61572;SDS011;47465;43.094;12.434;2023-12-29T20:02:03;13.35;;;7.75;;
61572;SDS011;47465;43.094;12.434;2023-12-29T20:04:43;11.52;;;7.53;;
61572;SDS011;47465;43.094;12.434;2023-12-29T20:07:28;10.60;;;7.63;;
61572;SDS011;47465;43.094;12.434;2023-12-29T20:10:00;11.73;;;7.43;;
61572;SDS011;47465;43.094;12.434;2023-12-29T20:12:37;11.82;;;6.90;;
61572;SDS011;47465;43.094;12.434;2023-12-29T20:15:14;14.98;;;7.43;;
61572;SDS011;47465;43.094;12.434;2023-12-29T20:17:54;16.25;;;10.13;;
61572;SDS011;47465;43.094;12.434;2023-12-29T20:20:32;16.38;;;8.65;;
61572;SDS011;47465;43.094;12.434;2023-12-29T20:23:10;18.48;;;9.85;;
61572;SDS011;47465;43.094;12.434;2023-12-29T20:25:43;16.67;;;8.95;;
61572;SDS011;47465;43.094;12.434;2023-12-29T20:31:33;15.70;;;9.07;;
61572;SDS011;47465;43.094;12.434;2023-12-29T20:34:08;16.20;;;8.85;;
61572;SDS011;47465;43.094;12.434;2023-12-29T20:36:45;16.38;;;8.65;;
61572;SDS011;47465;43.094;12.434;2023-12-29T20:39:28;15.70;;;9.05;;
61572;SDS011;47465;43.094;12.434;2023-12-29T20:42:03;32.67;;;14.85;;
61572;SDS011;47465;43.094;12.434;2023-12-29T20:44:45;44.28;;;20.25;;
61572;SDS011;47465;43.094;12.434;2023-12-29T21:01:33;17.45;;;9.77;;
61572;SDS011;47465;43.094;12.434;2023-12-29T21:04:19;13.70;;;8.10;;
61572;SDS011;47465;43.094;12.434;2023-12-29T21:07:26;16.80;;;9.95;;
61572;SDS011;47465;43.094;12.434;2023-12-29T21:14:18;16.25;;;8.50;;
61572;SDS011;47465;43.094;12.434;2023-12-29T21:27:51;14.50;;;7.78;;
61572;SDS011;47465;43.094;12.434;2023-12-29T21:33:44;14.77;;;9.07;;
61572;SDS011;47465;43.094;12.434;2023-12-29T22:30:41;21.23;;;13.80;;
61572;SDS011;47465;43.094;12.434;2023-12-29T22:33:22;23.23;;;13.13;;
61572;SDS011;47465;43.094;12.434;2023-12-29T22:36:10;21.80;;;12.43;;
61572;SDS011;47465;43.094;12.434;2023-12-29T22:49:25;27.45;;;14.65;;
61572;SDS011;47465;43.094;12.434;2023-12-29T22:52:09;21.88;;;12.98;;
61572;SDS011;47465;43.094;12.434;2023-12-29T22:54:38;23.45;;;12.63;;
61572;SDS011;47465;43.094;12.434;2023-12-29T23:00:12;21.88;;;12.25;;
61572;SDS011;47465;43.094;12.434;2023-12-29T23:03:33;24.42;;;14.18;;
61572;SDS011;47465;43.094;12.434;2023-12-29T23:13:05;25.05;;;12.18;;
61572;SDS011;47465;43.094;12.434;2023-12-29T23:15:57;20.35;;;11.77;;
61572;SDS011;47465;43.094;12.434;2023-12-29T23:19:09;17.85;;;10.38;;
61572;SDS011;47465;43.094;12.434;2023-12-29T23:21:43;18.70;;;11.15;;
61572;SDS011;47465;43.094;12.434;2023-12-29T23:24:30;21.63;;;10.80;;
61572;SDS011;47465;43.094;12.434;2023-12-29T23:27:03;17.25;;;9.98;;
61572;SDS011;47465;43.094;12.434;2023-12-29T23:29:36;17.73;;;10.38;;
61572;SDS011;47465;43.094;12.434;2023-12-29T23:35:29;22.27;;;13.07;;
61572;SDS011;47465;43.094;12.434;2023-12-29T23:38:00;22.65;;;13.43;;
61572;SDS011;47465;43.094;12.434;2023-12-29T23:40:30;23.02;;;12.95;;
61572;SDS011;47465;43.094;12.434;2023-12-29T23:43:10;19.13;;;11.75;;
61572;SDS011;47465;43.094;12.434;2023-12-29T23:48:40;17.95;;;11.57;;
61572;SDS011;47465;43.094;12.434;2023-12-29T23:54:24;18.45;;;11.65;;
61572;SDS011;47465;43.094;12.434;2023-12-29T23:56:54;22.30;;;11.45;;
61572;SDS011;47465;43.094;12.434;2023-12-29T23:59:42;18.33;;;10.20;;
